Time;durP1;ratioP1;P1;durP2;ratioP2;P2;SDS_P1;SDS_P2;PMS_P1;PMS_P2;Temp;Humidity;BMP_temperature;BMP_pressure;BME280_temperature;BME280_humidity;BME280_pressure;Samples;Min_cycle;Max_cycle;Signal;HPM_P1;HPM_P2
2023/10/13 00:00:33;;;;;;;23.15;10.18;;;17.60;99.90;;;;;;5076415;28;20032;-65
2023/10/13 00:03:02;;;;;;;27.02;9.73;;;17.60;99.90;;;;;;5093110;28;20016;-66
2023/10/13 00:05:31;;;;;;;25.90;9.63;;;17.70;99.90;;;;;;5092822;28;20052;-65
2023/10/13 00:08:00;;;;;;;23.00;9.40;;;17.70;99.90;;;;;;5076239;28;20484;-65
2023/10/13 00:10:27;;;;;;;31.10;10.60;;;17.70;99.90;;;;;;5061815;28;20024;-67
2023/10/13 00:12:53;;;;;;;23.55;10.00;;;17.70;99.90;;;;;;5087918;28;20024;-67
2023/10/13 00:15:27;;;;;;;28.58;10.50;;;17.70;99.90;;;;;;5083461;28;20017;-66
2023/10/13 00:17:55;;;;;;;24.60;9.18;;;17.70;99.90;;;;;;5081559;28;20098;-64
2023/10/13 00:20:37;;;;;;;29.38;9.15;;;17.70;99.90;;;;;;5089373;28;20020;-65
2023/10/13 00:23:03;;;;;;;29.67;8.88;;;17.70;99.90;;;;;;5081713;28;20024;-65
2023/10/13 00:25:29;;;;;;;22.08;9.23;;;17.70;99.90;;;;;;5092444;28;20494;-65
2023/10/13 00:27:55;;;;;;;23.75;8.90;;;17.70;99.90;;;;;;5076037;28;20319;-65
2023/10/13 00:30:33;;;;;;;27.23;9.50;;;17.70;99.90;;;;;;5075613;28;20016;-65
2023/10/13 00:32:59;;;;;;;26.80;9.52;;;17.80;99.90;;;;;;5084119;28;20028;-66
2023/10/13 00:35:29;;;;;;;23.05;8.57;;;17.70;99.90;;;;;;5084595;28;20024;-67
2023/10/13 00:38:04;;;;;;;19.35;8.32;;;17.70;99.90;;;;;;5082813;28;20017;-67
2023/10/13 00:43:28;;;;;;;15.98;6.60;;;17.60;99.90;;;;;;5080376;28;20031;-67
2023/10/13 00:48:34;;;;;;;19.45;6.50;;;17.50;99.90;;;;;;5060144;28;20036;-66
2023/10/13 00:51:06;;;;;;;18.70;7.00;;;17.40;99.90;;;;;;5086414;28;20020;-65
2023/10/13 00:53:44;;;;;;;17.88;7.13;;;17.50;99.90;;;;;;5080517;28;20032;-65
2023/10/13 00:56:18;;;;;;;20.10;6.90;;;17.50;99.90;;;;;;5077564;28;20102;-66
2023/10/13 00:58:57;;;;;;;20.67;7.25;;;17.50;99.90;;;;;;5064973;28;20024;-66
2023/10/13 01:01:29;;;;;;;23.67;6.85;;;17.40;99.90;;;;;;5080514;28;20106;-66
2023/10/13 01:04:08;;;;;;;19.52;7.03;;;17.50;99.90;;;;;;5088326;28;20023;-66
2023/10/13 01:06:34;;;;;;;17.13;5.43;;;17.50;99.90;;;;;;5079512;28;20062;-67
2023/10/13 01:09:16;;;;;;;20.63;6.53;;;17.50;99.90;;;;;;5078597;28;20036;-66
2023/10/13 01:11:54;;;;;;;22.77;6.30;;;17.50;99.90;;;;;;5080927;28;20487;-67
2023/10/13 01:14:20;;;;;;;22.67;6.75;;;17.50;99.90;;;;;;5078454;28;20024;-66
2023/10/13 01:16:49;;;;;;;26.35;6.18;;;17.40;99.90;;;;;;5093640;28;20016;-66
2023/10/13 01:19:24;;;;;;;19.95;5.18;;;17.50;99.90;;;;;;5086822;28;20033;-66
2023/10/13 01:21:54;;;;;;;24.92;6.47;;;17.50;99.90;;;;;;5080532;28;20472;-67
2023/10/13 01:24:23;;;;;;;21.20;6.25;;;17.50;99.90;;;;;;5092897;28;20111;-67
2023/10/13 01:26:51;;;;;;;23.52;5.65;;;17.50;99.90;;;;;;5081183;28;20020;-65
2023/10/13 01:29:18;;;;;;;28.60;6.00;;;17.50;99.90;;;;;;5084474;28;20032;-66
2023/10/13 01:31:45;;;;;;;20.17;5.85;;;17.50;99.90;;;;;;5089833;28;20028;-66
2023/10/13 01:34:24;;;;;;;23.67;5.85;;;17.40;99.90;;;;;;5094161;28;20031;-68
2023/10/13 01:36:53;;;;;;;23.98;6.40;;;17.50;99.90;;;;;;5078679;28;20029;-67
2023/10/13 01:39:28;;;;;;;27.05;5.65;;;17.50;99.90;;;;;;5095768;28;20021;-67
2023/10/13 01:41:57;;;;;;;22.13;5.38;;;17.50;99.90;;;;;;5081821;28;20024;-66
2023/10/13 01:44:27;;;;;;;22.13;5.45;;;17.40;99.90;;;;;;5085079;28;20032;-66
2023/10/13 01:46:53;;;;;;;22.63;5.93;;;17.40;99.90;;;;;;5086179;28;20403;-66
2023/10/13 01:49:21;;;;;;;24.80;6.20;;;17.40;99.90;;;;;;5084368;28;20025;-65
2023/10/13 01:51:47;;;;;;;25.13;6.70;;;17.40;99.90;;;;;;5087266;28;20054;-66
2023/10/13 01:54:15;;;;;;;20.42;5.93;;;17.40;99.90;;;;;;5091974;28;20107;-67
2023/10/13 01:56:43;;;;;;;21.65;5.57;;;17.50;99.90;;;;;;5081579;28;20028;-67
2023/10/13 01:59:12;;;;;;;18.35;5.28;;;17.40;99.90;;;;;;5086808;28;20533;-66
2023/10/13 02:01:40;;;;;;;15.32;4.88;;;17.50;99.90;;;;;;5089119;28;20032;-66
2023/10/13 02:04:06;;;;;;;19.08;5.82;;;17.40;99.90;;;;;;5078590;28;20056;-67
2023/10/13 02:06:36;;;;;;;20.02;5.90;;;17.40;99.90;;;;;;5090186;28;20161;-67
2023/10/13 02:09:27;;;;;;;21.23;6.28;;;17.40;99.90;;;;;;5083480;28;20035;-66
2023/10/13 02:11:54;;;;;;;19.08;6.30;;;17.40;99.90;;;;;;5085274;28;20043;-66
2023/10/13 02:14:22;;;;;;;18.23;6.35;;;17.40;99.90;;;;;;5086838;28;20027;-65
2023/10/13 02:16:50;;;;;;;23.88;6.40;;;17.40;99.90;;;;;;5083021;28;20021;-66
2023/10/13 02:19:19;;;;;;;19.65;5.95;;;17.30;99.90;;;;;;5092052;28;20047;-67
2023/10/13 02:21:45;;;;;;;21.65;7.28;;;17.30;99.90;;;;;;5080168;28;20040;-67
2023/10/13 02:24:18;;;;;;;23.58;7.35;;;17.30;99.90;;;;;;5090981;28;20474;-67
2023/10/13 02:26:45;;;;;;;21.23;8.20;;;17.30;99.90;;;;;;5085413;28;20043;-67
2023/10/13 02:29:13;;;;;;;19.10;8.43;;;17.30;99.90;;;;;;5082776;28;20028;-68
2023/10/13 02:31:40;;;;;;;26.15;8.75;;;17.30;99.90;;;;;;5085074;28;20371;-68
2023/10/13 02:34:11;;;;;;;25.10;9.38;;;17.30;99.90;;;;;;5092332;28;20434;-68
2023/10/13 02:36:48;;;;;;;23.10;9.00;;;17.30;99.90;;;;;;5085228;28;20021;-68
2023/10/13 02:39:15;;;;;;;22.63;9.30;;;17.30;99.90;;;;;;5084928;28;20031;-67
2023/10/13 02:41:47;;;;;;;23.42;9.55;;;17.30;99.90;;;;;;5082698;28;20383;-68
2023/10/13 02:44:20;;;;;;;25.52;10.65;;;17.30;99.90;;;;;;5088285;28;20020;-67
2023/10/13 02:46:50;;;;;;;22.02;10.55;;;17.30;99.90;;;;;;5087995;28;20047;-68
2023/10/13 02:49:19;;;;;;;24.15;11.02;;;17.30;99.90;;;;;;5084948;28;20124;-68
2023/10/13 02:51:45;;;;;;;26.33;11.75;;;17.30;99.90;;;;;;5079451;28;20427;-68
2023/10/13 02:54:11;;;;;;;28.05;11.60;;;17.20;99.90;;;;;;5090825;28;20518;-67
2023/10/13 02:56:38;;;;;;;24.88;11.93;;;17.20;99.90;;;;;;5079140;28;20031;-68
2023/10/13 02:59:07;;;;;;;26.48;12.68;;;17.20;99.90;;;;;;5084660;28;20027;-69
2023/10/13 03:01:36;;;;;;;32.15;14.25;;;17.20;99.90;;;;;;5086551;28;20027;-68
2023/10/13 03:04:03;;;;;;;26.60;13.80;;;17.10;99.90;;;;;;5085246;28;20024;-69
2023/10/13 03:06:32;;;;;;;28.05;14.75;;;17.10;99.90;;;;;;5086840;28;20103;-69
2023/10/13 03:09:18;;;;;;;33.60;17.55;;;17.10;99.90;;;;;;5070518;28;20085;-69
2023/10/13 03:11:48;;;;;;;31.45;16.75;;;17.10;99.90;;;;;;5079102;28;20116;-68
2023/10/13 03:14:25;;;;;;;30.35;18.08;;;17.10;99.90;;;;;;5090609;28;20059;-68
2023/10/13 03:16:55;;;;;;;34.90;19.75;;;17.10;99.90;;;;;;5081278;28;20024;-68
2023/10/13 03:19:21;;;;;;;37.28;21.45;;;17.10;99.90;;;;;;5082720;28;20094;-69
2023/10/13 03:21:57;;;;;;;41.50;21.98;;;17.00;99.90;;;;;;5082974;28;20029;-69
2023/10/13 03:24:33;;;;;;;40.70;23.58;;;16.90;99.90;;;;;;5083771;28;20050;-67
2023/10/13 03:27:08;;;;;;;39.42;22.58;;;17.00;99.90;;;;;;5085260;28;20025;-69
2023/10/13 03:29:35;;;;;;;42.67;23.17;;;17.00;99.90;;;;;;5093727;28;20032;-69
2023/10/13 03:32:11;;;;;;;45.15;23.70;;;16.90;99.90;;;;;;5076337;28;20036;-68
2023/10/13 03:34:40;;;;;;;41.72;22.10;;;16.90;99.90;;;;;;5087077;28;20065;-68
2023/10/13 03:37:18;;;;;;;42.45;23.05;;;16.90;99.90;;;;;;5076825;28;20041;-68
2023/10/13 03:39:45;;;;;;;39.35;20.92;;;16.90;99.90;;;;;;5088064;28;20111;-68
2023/10/13 03:42:18;;;;;;;42.70;23.08;;;16.90;99.90;;;;;;5090647;28;20027;-68
2023/10/13 03:44:46;;;;;;;42.38;22.20;;;16.90;99.90;;;;;;5077885;28;20028;-67
2023/10/13 03:47:26;;;;;;;43.83;22.85;;;16.90;99.90;;;;;;5086524;28;20109;-67
2023/10/13 03:50:14;;;;;;;40.40;22.50;;;16.90;99.90;;;;;;5082881;28;20076;-68
2023/10/13 03:52:39;;;;;;;39.90;21.55;;;16.90;99.90;;;;;;5064452;28;20072;-68
2023/10/13 03:55:06;;;;;;;39.83;22.52;;;16.90;99.90;;;;;;5083625;28;20044;-68
2023/10/13 03:57:37;;;;;;;39.70;21.52;;;16.80;99.90;;;;;;5086066;28;20020;-69
2023/10/13 04:00:09;;;;;;;40.50;23.43;;;16.80;99.90;;;;;;5076061;28;20396;-69
2023/10/13 04:02:36;;;;;;;42.22;23.58;;;16.80;99.90;;;;;;5073472;28;20261;-68
2023/10/13 04:05:09;;;;;;;40.47;23.80;;;16.80;99.90;;;;;;5081770;28;20111;-69
2023/10/13 04:08:03;;;;;;;42.45;25.00;;;16.80;99.90;;;;;;5079624;28;20078;-68
2023/10/13 04:16:14;;;;;;;31.95;16.63;;;16.80;99.90;;;;;;5079022;28;20025;-69
2023/10/13 04:19:03;;;;;;;32.13;19.50;;;16.70;99.90;;;;;;5073556;28;20028;-69
2023/10/13 04:24:23;;;;;;;30.02;17.85;;;16.70;99.90;;;;;;5090912;28;20077;-69
2023/10/13 04:37:50;;;;;;;22.80;13.50;;;16.60;99.90;;;;;;5080422;28;20055;-68
2023/10/13 04:40:19;;;;;;;25.38;14.32;;;16.50;99.90;;;;;;5053429;28;20116;-68
2023/10/13 04:42:49;;;;;;;22.08;13.45;;;16.50;99.90;;;;;;5079389;28;20024;-67
2023/10/13 04:48:17;;;;;;;19.65;12.45;;;16.50;99.90;;;;;;5072574;28;20492;-69
2023/10/13 04:50:50;;;;;;;23.60;11.88;;;16.50;99.90;;;;;;5080525;28;20031;-67
2023/10/13 04:53:45;;;;;;;22.67;12.32;;;16.50;99.90;;;;;;5078986;28;20040;-67
2023/10/13 04:59:43;;;;;;;17.27;11.05;;;16.60;99.90;;;;;;5076064;28;20109;-67
2023/10/13 05:02:31;;;;;;;20.48;12.40;;;16.60;99.90;;;;;;5063965;28;20075;-67
2023/10/13 05:04:57;;;;;;;21.67;12.23;;;16.60;99.90;;;;;;5077056;28;20082;-67
2023/10/13 06:29:37;;;;;;;33.65;10.52;;;16.90;99.90;;;;;;5092414;28;20515;-66
2023/10/13 06:32:10;;;;;;;30.27;9.10;;;16.90;99.90;;;;;;5087391;28;20050;-67
2023/10/13 06:34:45;;;;;;;29.27;9.05;;;16.90;99.90;;;;;;5079507;28;20045;-66
2023/10/13 06:40:25;;;;;;;27.00;9.43;;;16.90;99.90;;;;;;5057068;28;20541;-67
2023/10/13 06:42:53;;;;;;;25.90;8.90;;;16.80;99.90;;;;;;5054456;28;20037;-66
2023/10/13 06:45:20;;;;;;;20.63;7.20;;;16.80;99.90;;;;;;5054587;28;20036;-66
2023/10/13 06:47:46;;;;;;;21.70;7.35;;;16.70;99.90;;;;;;5071455;28;20127;-66
2023/10/13 06:50:15;;;;;;;23.83;7.60;;;16.70;99.90;;;;;;5072572;28;20214;-67
2023/10/13 06:52:42;;;;;;;20.17;7.70;;;16.60;99.90;;;;;;5079748;28;20075;-68
2023/10/13 06:55:17;;;;;;;20.85;7.38;;;16.60;99.90;;;;;;5084167;28;20024;-66
2023/10/13 06:57:46;;;;;;;24.77;8.30;;;16.60;99.90;;;;;;5083706;28;20436;-67
2023/10/13 07:00:34;;;;;;;21.70;8.55;;;16.60;99.90;;;;;;5085968;28;20456;-67
2023/10/13 07:03:06;;;;;;;20.95;8.02;;;16.60;99.90;;;;;;5093588;28;20032;-66
2023/10/13 07:05:39;;;;;;;13.80;6.53;;;16.60;99.90;;;;;;5092625;28;20031;-67
2023/10/13 07:08:08;;;;;;;21.08;8.20;;;16.60;99.90;;;;;;5092283;28;20040;-67
2023/10/13 07:11:32;;;;;;;20.38;8.52;;;16.60;99.90;;;;;;5091677;28;20013;-67
2023/10/13 07:13:22;;;;;;;21.00;8.38;;;16.60;99.90;;;;;;5086191;28;20051;-67
2023/10/13 07:15:47;;;;;;;19.73;8.75;;;16.60;99.90;;;;;;5093394;28;20028;-67
2023/10/13 07:18:16;;;;;;;22.40;10.35;;;16.60;99.90;;;;;;5093063;28;20026;-67
2023/10/13 07:20:45;;;;;;;24.60;10.40;;;16.70;99.90;;;;;;5092760;28;20027;-67
2023/10/13 07:23:17;;;;;;;24.58;10.73;;;16.80;99.90;;;;;;5093249;28;20039;-68
2023/10/13 07:25:51;;;;;;;24.75;12.07;;;16.80;99.90;;;;;;5093569;28;20494;-67
2023/10/13 07:28:16;;;;;;;21.88;11.60;;;16.90;99.90;;;;;;5093491;28;20052;-67
2023/10/13 07:31:28;;;;;;;24.25;12.82;;;17.00;99.90;;;;;;5087380;28;20028;-67
2023/10/13 07:33:31;;;;;;;24.70;13.85;;;17.00;99.90;;;;;;5062819;28;20441;-66
2023/10/13 07:36:11;;;;;;;27.27;14.30;;;17.10;99.90;;;;;;5073046;28;20059;-67
2023/10/13 07:38:37;;;;;;;25.15;12.70;;;17.20;99.90;;;;;;5071306;28;20063;-66
2023/10/13 07:41:09;;;;;;;22.77;13.40;;;17.20;99.90;;;;;;5072707;28;20109;-67
2023/10/13 07:43:39;;;;;;;26.40;12.07;;;17.30;99.90;;;;;;5070788;28;20031;-67
2023/10/13 07:46:09;;;;;;;20.95;12.65;;;17.40;99.90;;;;;;5072908;28;20117;-66
2023/10/13 07:48:37;;;;;;;24.48;11.98;;;17.50;99.90;;;;;;5072923;28;20047;-66
2023/10/13 07:51:44;;;;;;;23.77;11.77;;;17.50;99.90;;;;;;5072981;28;20031;-66
2023/10/13 07:53:57;;;;;;;22.70;10.98;;;17.60;99.90;;;;;;5070011;28;20036;-65
2023/10/13 07:56:23;;;;;;;19.30;10.45;;;17.70;99.90;;;;;;5071448;28;20029;-67
2023/10/13 08:01:17;;;;;;;24.48;10.98;;;17.80;99.90;;;;;;5073085;28;20032;-67
2023/10/13 08:03:44;;;;;;;24.35;9.80;;;17.90;99.90;;;;;;5073160;28;20028;-67
2023/10/13 08:08:39;;;;;;;21.25;9.38;;;18.00;99.90;;;;;;5072749;28;20490;-67
2023/10/13 08:11:11;;;;;;;18.33;8.63;;;18.00;99.90;;;;;;5072949;28;20155;-66
2023/10/13 08:13:46;;;;;;;17.98;8.30;;;18.00;99.90;;;;;;5073347;28;20037;-67
2023/10/13 08:16:20;;;;;;;18.75;7.70;;;18.10;99.90;;;;;;5073097;28;20393;-66
2023/10/13 08:18:49;;;;;;;19.33;7.20;;;18.10;99.90;;;;;;5072868;28;20036;-66
2023/10/13 08:21:19;;;;;;;17.02;6.93;;;18.20;99.90;;;;;;5072769;28;20028;-66
2023/10/13 08:26:29;;;;;;;23.00;8.43;;;18.20;99.90;;;;;;5070542;28;20031;-66
2023/10/13 08:29:05;;;;;;;20.38;6.97;;;18.30;99.90;;;;;;5072554;28;20020;-66
2023/10/13 08:31:41;;;;;;;20.70;10.60;;;18.40;99.90;;;;;;5072705;28;20047;-65
2023/10/13 08:34:06;;;;;;;12.18;6.18;;;18.40;99.90;;;;;;5071121;28;20036;-66
2023/10/13 08:36:32;;;;;;;17.38;7.30;;;18.40;99.90;;;;;;5072110;28;20381;-67
2023/10/13 08:39:15;;;;;;;14.85;5.75;;;18.50;99.90;;;;;;5072793;28;20035;-67
2023/10/13 08:41:58;;;;;;;18.77;6.20;;;18.60;99.90;;;;;;5072866;28;20028;-66
2023/10/13 08:44:33;;;;;;;19.70;7.35;;;18.60;99.90;;;;;;5072587;28;20377;-66
2023/10/13 08:47:05;;;;;;;17.88;6.63;;;18.70;99.90;;;;;;5072672;28;20059;-66
2023/10/13 08:49:39;;;;;;;20.65;6.95;;;18.80;99.90;;;;;;5072359;28;20028;-66
2023/10/13 08:52:06;;;;;;;16.83;6.97;;;18.80;99.90;;;;;;5072089;28;20040;-66
2023/10/13 08:54:38;;;;;;;16.42;6.68;;;18.80;99.90;;;;;;5071146;28;20115;-66
2023/10/13 08:57:53;;;;;;;18.60;6.80;;;18.90;99.90;;;;;;5072231;28;20051;-66
2023/10/13 08:59:53;;;;;;;18.25;6.07;;;18.90;99.90;;;;;;5064735;28;20556;-66
2023/10/13 09:02:22;;;;;;;22.50;6.97;;;18.90;99.90;;;;;;5071015;28;20116;-66
2023/10/13 09:04:59;;;;;;;15.80;5.53;;;18.90;99.90;;;;;;5072309;28;20044;-66
2023/10/13 09:07:25;;;;;;;16.95;5.80;;;19.00;99.90;;;;;;5071158;28;20048;-65
2023/10/13 09:15:05;;;;;;;18.65;5.60;;;19.10;99.90;;;;;;5072078;28;20086;-66
2023/10/13 09:17:34;;;;;;;16.88;5.47;;;19.20;99.90;;;;;;5072274;28;20511;-66
2023/10/13 09:20:22;;;;;;;20.45;5.93;;;19.30;99.90;;;;;;5071768;28;20025;-66
2023/10/13 09:23:07;;;;;;;15.38;5.20;;;19.30;99.90;;;;;;5072238;28;20037;-66
2023/10/13 09:25:37;;;;;;;20.50;5.85;;;19.40;99.90;;;;;;5072050;28;20031;-66
2023/10/13 09:28:10;;;;;;;20.15;6.18;;;19.50;99.90;;;;;;5071606;28;20070;-66
2023/10/13 09:30:49;;;;;;;17.23;6.60;;;19.70;99.90;;;;;;5072467;28;20089;-67
2023/10/13 09:33:28;;;;;;;27.38;6.30;;;19.90;99.90;;;;;;5072278;28;20028;-66
2023/10/13 09:35:54;;;;;;;18.17;6.07;;;20.00;99.90;;;;;;5075944;28;20043;-66
2023/10/13 09:38:20;;;;;;;17.08;5.68;;;20.10;99.90;;;;;;5075868;28;20025;-66
2023/10/13 09:40:49;;;;;;;22.40;5.88;;;20.10;99.90;;;;;;5075507;28;20103;-66
2023/10/13 09:43:18;;;;;;;18.35;5.50;;;20.20;99.90;;;;;;5075470;28;20491;-65
2023/10/13 09:48:40;;;;;;;13.73;4.68;;;20.20;99.90;;;;;;5075487;28;20502;-65
2023/10/13 09:51:14;;;;;;;15.95;5.50;;;20.10;99.90;;;;;;5075281;28;20033;-65
2023/10/13 09:53:45;;;;;;;19.42;5.25;;;20.10;99.90;;;;;;5075360;28;20113;-65
2023/10/13 09:56:27;;;;;;;18.60;5.55;;;20.20;99.90;;;;;;5074951;28;20089;-66
2023/10/13 09:59:08;;;;;;;22.25;5.18;;;20.20;99.90;;;;;;5075604;28;20056;-66
2023/10/13 10:01:40;;;;;;;20.77;5.87;;;20.20;99.90;;;;;;5075233;28;20388;-66
2023/10/13 10:04:18;;;;;;;15.07;4.95;;;20.20;99.90;;;;;;5075661;28;20264;-66
2023/10/13 10:06:54;;;;;;;16.25;4.97;;;20.30;99.90;;;;;;5075298;28;20548;-66
2023/10/13 10:09:34;;;;;;;14.40;5.40;;;20.40;99.90;;;;;;5074610;28;20481;-66
2023/10/13 10:12:28;;;;;;;17.77;5.43;;;20.40;99.90;;;;;;5074901;28;20472;-66
2023/10/13 10:15:13;;;;;;;17.92;6.05;;;20.60;99.90;;;;;;5075222;28;20025;-65
2023/10/13 10:17:43;;;;;;;17.77;6.38;;;20.70;99.90;;;;;;5074991;28;20027;-65
2023/10/13 10:20:32;;;;;;;15.63;4.85;;;20.90;99.90;;;;;;5074842;28;20024;-65
2023/10/13 10:22:59;;;;;;;19.38;5.45;;;21.00;99.90;;;;;;5074999;28;20024;-66
2023/10/13 10:25:34;;;;;;;22.38;4.97;;;21.00;99.90;;;;;;5074648;28;20040;-65
2023/10/13 10:28:07;;;;;;;18.92;5.80;;;21.00;99.90;;;;;;5074851;28;20071;-66
2023/10/13 10:30:35;;;;;;;18.45;5.13;;;21.00;99.90;;;;;;5074785;28;20023;-65
2023/10/13 10:33:08;;;;;;;20.30;5.25;;;21.00;99.90;;;;;;5074485;28;20370;-66
2023/10/13 10:35:34;;;;;;;20.70;5.03;;;21.10;99.90;;;;;;5074900;28;20469;-65
2023/10/13 10:38:11;;;;;;;14.98;4.90;;;21.20;99.90;;;;;;5074567;28;20035;-65
2023/10/13 10:40:58;;;;;;;20.13;5.25;;;21.40;99.90;;;;;;5074059;28;20028;-66
2023/10/13 10:43:45;;;;;;;14.70;4.90;;;21.60;99.90;;;;;;5074489;28;20086;-66
2023/10/13 10:46:12;;;;;;;17.17;4.93;;;21.90;99.90;;;;;;5074253;28;20032;-66
2023/10/13 10:48:42;;;;;;;14.38;5.00;;;22.20;99.90;;;;;;5074693;28;20052;-65
2023/10/13 10:51:14;;;;;;;15.63;5.03;;;22.30;99.90;;;;;;5074239;28;20029;-67
2023/10/13 10:53:46;;;;;;;17.83;5.15;;;22.30;99.90;;;;;;5073938;28;20036;-66
2023/10/13 10:58:59;;;;;;;16.00;4.93;;;22.00;99.90;;;;;;5074719;28;20119;-66
2023/10/13 11:01:38;;;;;;;19.15;5.50;;;22.00;99.90;;;;;;5074193;28;20029;-65
2023/10/13 11:04:14;;;;;;;16.27;5.28;;;21.90;99.90;;;;;;5074260;28;20051;-65
2023/10/13 11:06:46;;;;;;;19.27;5.80;;;21.80;99.90;;;;;;5074307;28;20048;-65
2023/10/13 11:09:19;;;;;;;20.75;5.68;;;21.70;99.90;;;;;;5072311;28;20037;-66
2023/10/13 11:11:46;;;;;;;16.42;5.38;;;21.60;99.90;;;;;;5074063;28;20025;-65
2023/10/13 11:14:26;;;;;;;16.55;5.40;;;21.60;99.90;;;;;;5074081;28;20028;-66
2023/10/13 11:16:54;;;;;;;19.73;5.55;;;21.50;99.90;;;;;;5072786;28;20449;-66
2023/10/13 11:19:25;;;;;;;22.85;5.78;;;21.40;99.90;;;;;;5073892;28;20082;-66
2023/10/13 11:21:54;;;;;;;14.48;4.85;;;21.30;99.90;;;;;;5072922;28;20029;-66
2023/10/13 11:24:21;;;;;;;23.10;5.47;;;21.30;99.90;;;;;;5073444;28;20078;-66
2023/10/13 11:26:52;;;;;;;17.52;6.00;;;21.20;99.90;;;;;;5073627;28;20048;-65
2023/10/13 11:29:31;;;;;;;22.73;6.35;;;21.20;99.90;;;;;;5073827;28;20111;-65
2023/10/13 11:32:00;;;;;;;22.13;6.13;;;21.20;99.90;;;;;;5073758;28;20033;-65
2023/10/13 11:34:35;;;;;;;24.02;5.95;;;21.20;99.90;;;;;;5073578;28;20449;-66
2023/10/13 11:37:28;;;;;;;18.25;5.60;;;21.20;99.90;;;;;;5073336;28;20040;-65
2023/10/13 11:39:47;;;;;;;18.63;5.70;;;21.20;99.90;;;;;;5072940;28;20033;-65
2023/10/13 11:42:12;;;;;;;19.08;4.95;;;21.20;99.90;;;;;;5073490;28;20051;-65
2023/10/13 11:44:43;;;;;;;22.45;5.63;;;21.20;99.90;;;;;;5073441;28;20028;-66
2023/10/13 11:47:32;;;;;;;13.95;5.63;;;21.20;99.90;;;;;;5072829;28;20043;-66
2023/10/13 11:49:59;;;;;;;15.82;5.63;;;21.20;99.90;;;;;;5071295;28;20036;-66
2023/10/13 11:52:26;;;;;;;19.48;6.55;;;21.10;99.90;;;;;;5073250;28;20131;-66
2023/10/13 11:54:52;;;;;;;25.00;6.68;;;21.10;99.90;;;;;;5073457;28;20154;-66
2023/10/13 11:57:19;;;;;;;20.15;6.20;;;21.20;99.90;;;;;;5072248;28;20153;-66
2023/10/13 11:59:53;;;;;;;19.00;5.63;;;21.20;99.90;;;;;;5071001;28;20406;-65
2023/10/13 12:04:57;;;;;;;22.73;6.90;;;21.00;99.90;;;;;;5072239;28;20106;-66
2023/10/13 12:10:15;;;;;;;17.80;6.47;;;20.70;99.90;;;;;;5071386;28;20507;-65
2023/10/13 12:12:43;;;;;;;28.20;7.28;;;20.60;99.90;;;;;;5072767;28;20082;-65
2023/10/13 12:15:25;;;;;;;21.13;6.10;;;20.50;99.90;;;;;;5072804;28;20107;-65
2023/10/13 12:17:51;;;;;;;22.88;7.88;;;20.40;99.90;;;;;;5073068;28;20043;-65
2023/10/13 12:20:32;;;;;;;23.15;7.72;;;20.30;99.90;;;;;;5072951;28;20021;-66
2023/10/13 12:23:15;;;;;;;29.67;8.00;;;20.20;99.90;;;;;;5073124;28;20044;-66
2023/10/13 12:28:26;;;;;;;26.98;7.75;;;20.10;99.90;;;;;;5072474;28;20039;-66
2023/10/13 12:30:53;;;;;;;24.65;8.30;;;20.00;99.90;;;;;;5072369;28;20381;-67
2023/10/13 12:33:24;;;;;;;29.67;8.52;;;19.90;99.90;;;;;;5072065;28;20020;-66
2023/10/13 12:36:03;;;;;;;28.97;10.23;;;19.90;99.90;;;;;;5084770;28;20028;-66
2023/10/13 12:38:37;;;;;;;32.63;12.25;;;19.90;99.90;;;;;;5092895;28;20261;-66
2023/10/13 12:52:05;;;;;;;29.85;8.75;;;20.10;99.90;;;;;;5092835;28;20176;-66
2023/10/13 12:54:38;;;;;;;25.20;7.55;;;20.10;99.90;;;;;;5092238;28;20024;-65
2023/10/13 12:57:09;;;;;;;27.10;9.20;;;20.10;99.90;;;;;;5092581;28;20186;-66
2023/10/13 12:59:34;;;;;;;22.10;7.55;;;20.10;99.90;;;;;;5092576;28;20039;-66
2023/10/13 13:02:06;;;;;;;26.40;8.10;;;20.20;99.90;;;;;;5092570;28;20024;-66
2023/10/13 13:04:36;;;;;;;29.70;8.88;;;20.20;99.90;;;;;;5089990;28;20024;-66
2023/10/13 13:07:05;;;;;;;28.65;8.70;;;20.20;99.90;;;;;;5071738;28;20032;-66
2023/10/13 13:09:31;;;;;;;28.45;9.00;;;20.10;99.90;;;;;;5075598;28;20514;-64
2023/10/13 13:11:57;;;;;;;28.98;8.48;;;20.10;99.90;;;;;;5076242;28;20028;-66
2023/10/13 13:14:29;;;;;;;27.58;8.57;;;20.10;99.90;;;;;;5076519;28;20060;-66
2023/10/13 13:17:06;;;;;;;26.95;8.45;;;20.10;99.90;;;;;;5076568;28;20040;-66
2023/10/13 13:19:38;;;;;;;25.35;9.30;;;20.10;99.90;;;;;;5076367;28;20031;-66
2023/10/13 13:22:11;;;;;;;31.38;8.75;;;20.10;99.90;;;;;;5075767;28;20045;-66
2023/10/13 13:24:43;;;;;;;30.08;10.95;;;20.00;99.90;;;;;;5074373;28;20032;-66
2023/10/13 13:27:19;;;;;;;29.88;11.57;;;20.00;99.90;;;;;;5074913;28;20048;-66
2023/10/13 13:29:45;;;;;;;29.73;9.65;;;19.90;99.90;;;;;;5075499;28;20109;-66
2023/10/13 13:33:11;;;;;;;28.05;10.13;;;19.80;99.90;;;;;;5075299;28;20029;-66
2023/10/13 13:35:07;;;;;;;27.58;9.60;;;19.70;99.90;;;;;;5064905;28;20036;-66
2023/10/13 13:37:33;;;;;;;27.45;8.95;;;19.70;99.90;;;;;;5075230;28;20024;-66
2023/10/13 13:40:13;;;;;;;32.53;9.90;;;19.60;99.90;;;;;;5089520;28;20036;-67
2023/10/13 13:42:40;;;;;;;32.70;10.20;;;19.60;99.90;;;;;;5078477;28;20017;-67
2023/10/13 13:45:11;;;;;;;32.80;10.45;;;19.50;99.90;;;;;;5075018;28;20029;-65
2023/10/13 13:47:37;;;;;;;33.17;9.70;;;19.50;99.90;;;;;;5075071;28;20331;-66
2023/10/13 13:50:14;;;;;;;31.08;9.45;;;19.50;99.90;;;;;;5074886;28;20534;-66
2023/10/13 13:52:45;;;;;;;32.72;10.00;;;19.50;99.90;;;;;;5073641;28;20127;-65
2023/10/13 13:55:17;;;;;;;34.70;10.30;;;19.50;99.90;;;;;;5072685;28;20108;-65
2023/10/13 13:57:43;;;;;;;30.70;10.80;;;19.50;99.90;;;;;;5075538;28;20037;-66
2023/10/13 14:00:17;;;;;;;29.15;8.85;;;19.50;99.90;;;;;;5075257;28;20029;-66
2023/10/13 14:02:47;;;;;;;29.05;9.75;;;19.50;99.90;;;;;;5075484;28;20056;-67
2023/10/13 14:05:16;;;;;;;35.80;12.13;;;19.50;99.90;;;;;;5075384;28;20036;-64
2023/10/13 14:07:48;;;;;;;34.95;10.23;;;19.50;99.90;;;;;;5075059;28;20499;-66
2023/10/13 14:10:31;;;;;;;25.95;7.90;;;19.50;99.90;;;;;;5075470;28;20035;-66
2023/10/13 14:13:06;;;;;;;31.95;9.77;;;19.60;99.90;;;;;;5075155;28;20033;-66
2023/10/13 14:15:40;;;;;;;26.05;9.50;;;19.50;99.90;;;;;;5075432;28;20025;-66
2023/10/13 14:18:07;;;;;;;37.10;12.00;;;19.50;99.90;;;;;;5074480;28;20055;-66
2023/10/13 14:20:39;;;;;;;31.30;10.18;;;19.40;99.90;;;;;;5073841;28;20111;-65
2023/10/13 14:23:07;;;;;;;;;;;19.40;99.90;;;;;;5072329;28;20024;-64
2023/10/13 14:25:37;;;;;;;42.70;10.93;;;19.40;99.90;;;;;;5074329;28;19904;-65
2023/10/13 14:28:06;;;;;;;39.72;12.65;;;19.30;99.90;;;;;;5073368;28;20102;-64
2023/10/13 14:30:32;;;;;;;33.45;9.73;;;19.20;99.90;;;;;;5073209;28;20032;-67
2023/10/13 14:33:01;;;;;;;32.80;11.98;;;19.20;99.90;;;;;;5073457;28;20713;-68
2023/10/13 14:35:26;;;;;;;34.85;11.07;;;19.10;99.90;;;;;;5074152;28;20254;-66
2023/10/13 14:37:53;;;;;;;45.88;12.75;;;19.10;99.90;;;;;;5074179;28;20529;-67
2023/10/13 14:40:21;;;;;;;34.53;12.13;;;19.00;99.90;;;;;;5076603;28;20036;-67
2023/10/13 14:42:47;;;;;;;37.83;12.18;;;19.00;99.90;;;;;;5074500;28;20032;-67
2023/10/13 14:45:16;;;;;;;39.75;12.10;;;18.90;99.90;;;;;;5074057;28;20033;-67
2023/10/13 14:47:45;;;;;;;36.15;10.90;;;18.90;99.90;;;;;;5071261;28;20044;-68
2023/10/13 14:50:19;;;;;;;40.10;11.57;;;18.80;99.90;;;;;;5053963;28;20032;-67
2023/10/13 14:52:45;;;;;;;40.78;12.55;;;18.80;99.90;;;;;;5070730;28;20045;-68
2023/10/13 14:55:21;;;;;;;51.08;13.68;;;18.70;99.90;;;;;;5071973;28;20033;-68
2023/10/13 14:57:47;;;;;;;46.08;14.13;;;18.60;99.90;;;;;;5070618;28;20059;-68
2023/10/13 15:00:14;;;;;;;53.78;12.65;;;18.60;99.90;;;;;;5073402;28;20036;-68
2023/10/13 15:02:42;;;;;;;45.20;12.90;;;18.60;99.90;;;;;;5073048;28;20027;-68
2023/10/13 15:05:16;;;;;;;51.65;12.05;;;18.50;99.90;;;;;;5073644;28;20024;-68
2023/10/13 15:07:44;;;;;;;46.33;12.23;;;18.50;99.90;;;;;;5074684;28;20098;-67
2023/10/13 15:10:14;;;;;;;55.03;13.07;;;18.50;99.90;;;;;;5073254;28;20021;-69
2023/10/13 15:12:41;;;;;;;47.05;14.57;;;18.50;99.90;;;;;;5073650;28;20025;-67
2023/10/13 15:15:13;;;;;;;52.10;13.90;;;18.50;99.90;;;;;;5073077;28;20032;-67
2023/10/13 15:17:48;;;;;;;45.17;13.90;;;18.50;99.90;;;;;;5073164;28;20041;-67
2023/10/13 15:20:17;;;;;;;42.63;12.13;;;18.50;99.90;;;;;;5073307;28;20028;-66
2023/10/13 15:22:44;;;;;;;50.60;14.38;;;18.50;99.90;;;;;;5070151;28;20107;-66
2023/10/13 15:28:09;;;;;;;35.72;10.38;;;18.50;99.90;;;;;;5050478;28;20110;-66
2023/10/13 15:30:44;;;;;;;36.08;9.88;;;18.50;99.90;;;;;;5073587;28;20452;-66
2023/10/13 15:33:12;;;;;;;36.63;10.38;;;18.50;99.90;;;;;;5072759;28;20040;-66